Time;durP1;ratioP1;P1;durP2;ratioP2;P2;SDS_P1;SDS_P2;PMS_P1;PMS_P2;Temp;Humidity;BMP_temperature;BMP_pressure;BME280_temperature;BME280_humidity;BME280_pressure;Samples;Min_cycle;Max_cycle;Signal;HPM_P1;HPM_P2
2021/08/25 00:01:36;;;;;;;4.53;2.08;;;;;;;16.09;84.13;100483.59;5072711;28;20045;-75
2021/08/25 00:04:05;;;;;;;3.30;1.83;;;;;;;16.02;85.45;100478.72;5072650;28;20040;-77
2021/08/25 00:06:34;;;;;;;4.75;1.80;;;;;;;15.96;86.46;100479.19;5072835;28;20044;-74
2021/08/25 00:09:03;;;;;;;4.40;1.90;;;;;;;16.00;85.59;100480.66;5072686;28;20044;-74
2021/08/25 00:11:31;;;;;;;4.50;2.40;;;;;;;15.93;85.15;100492.91;5072440;28;20041;-75
2021/08/25 00:14:01;;;;;;;6.00;3.60;;;;;;;15.94;85.59;100486.53;5071396;28;20051;-74
2021/08/25 00:16:30;;;;;;;5.93;3.47;;;;;;;15.85;85.18;100481.88;5072411;28;20473;-73
2021/08/25 00:18:58;;;;;;;4.50;2.55;;;;;;;15.82;83.73;100489.31;5072480;28;20059;-71
2021/08/25 00:21:26;;;;;;;4.47;2.67;;;;;;;15.80;82.90;100496.66;5072361;28;20037;-71
2021/08/25 00:23:54;;;;;;;5.07;2.00;;;;;;;15.84;82.71;100490.94;5072657;28;20139;-71
2021/08/25 00:26:23;;;;;;;4.63;2.42;;;;;;;15.99;81.10;100488.84;5074495;28;20110;-72
2021/08/25 00:28:51;;;;;;;4.18;1.77;;;;;;;16.07;80.27;100490.94;5076351;28;20051;-72
2021/08/25 00:31:21;;;;;;;4.43;2.13;;;;;;;15.99;79.94;100488.84;5075744;28;20127;-73
2021/08/25 00:33:50;;;;;;;6.75;1.90;;;;;;;16.02;80.03;100488.63;5076266;28;20042;-73
2021/08/25 00:36:18;;;;;;;3.10;1.63;;;;;;;16.14;79.00;100489.47;5075985;28;20048;-72
2021/08/25 00:38:46;;;;;;;2.97;1.50;;;;;;;16.22;78.51;100477.13;5076185;28;20057;-72
2021/08/25 00:41:14;;;;;;;2.85;1.75;;;;;;;16.28;78.33;100482.00;5110527;28;20063;-73
2021/08/25 00:43:42;;;;;;;4.57;1.88;;;;;;;16.32;77.96;100477.25;5116981;28;20236;-73
2021/08/25 00:46:11;;;;;;;3.10;1.73;;;;;;;16.35;78.23;100476.13;5116414;28;20051;-73
2021/08/25 00:48:42;;;;;;;3.65;1.63;;;;;;;16.35;78.56;100471.59;5116657;28;20109;-72
2021/08/25 00:51:11;;;;;;;2.78;1.80;;;;;;;16.48;78.20;100474.16;5116390;28;20423;-73
2021/08/25 00:53:42;;;;;;;2.88;1.52;;;;;;;16.42;78.86;100462.06;5116691;28;20040;-73
2021/08/25 00:56:13;;;;;;;4.68;1.67;;;;;;;16.45;78.68;100458.25;5116493;28;20048;-73
2021/08/25 00:58:45;;;;;;;4.72;1.70;;;;;;;16.54;78.55;100452.97;5116534;28;20039;-73
2021/08/25 01:01:22;;;;;;;2.58;1.55;;;;;;;16.50;78.72;100456.91;5116028;28;20047;-73
2021/08/25 01:03:58;;;;;;;4.40;2.00;;;;;;;16.48;78.75;100460.69;5116377;28;20048;-73
2021/08/25 01:06:27;;;;;;;2.78;1.75;;;;;;;16.55;78.66;100456.53;5115976;28;20481;-74
2021/08/25 01:08:57;;;;;;;3.45;1.80;;;;;;;16.67;77.43;100450.13;5116270;28;20043;-74
2021/08/25 01:11:25;;;;;;;3.20;1.60;;;;;;;16.60;77.36;100440.88;5116092;28;20434;-71
2021/08/25 01:13:53;;;;;;;2.28;1.38;;;;;;;16.66;77.81;100439.47;5116352;28;20074;-71
2021/08/25 01:16:23;;;;;;;3.13;1.63;;;;;;;16.65;77.45;100448.56;5115899;28;20472;-73
2021/08/25 01:18:53;;;;;;;2.65;1.50;;;;;;;16.69;77.16;100452.72;5116053;28;20044;-73
2021/08/25 01:21:22;;;;;;;2.47;1.38;;;;;;;16.59;77.33;100455.28;5097589;28;20400;-72
2021/08/25 01:23:52;;;;;;;4.50;1.70;;;;;;;16.51;78.24;100460.47;5116254;28;20052;-72
2021/08/25 01:26:20;;;;;;;4.07;1.70;;;;;;;16.49;78.73;100459.72;5115666;28;20044;-72
2021/08/25 01:28:52;;;;;;;3.03;1.70;;;;;;;16.69;77.86;100464.34;5115792;28;20044;-72
2021/08/25 01:31:22;;;;;;;2.85;1.52;;;;;;;16.56;78.63;100461.78;5115481;28;20356;-73
2021/08/25 01:34:02;;;;;;;4.38;1.80;;;;;;;16.43;79.48;100465.63;5115873;28;20035;-72
2021/08/25 01:36:30;;;;;;;2.72;1.33;;;;;;;16.45;79.49;100458.25;5115150;28;20284;-73
2021/08/25 01:39:01;;;;;;;2.90;1.58;;;;;;;16.65;78.74;100457.47;5115342;28;20050;-73
2021/08/25 01:41:29;;;;;;;2.97;1.65;;;;;;;16.55;79.01;100452.00;5115136;28;20048;-73
2021/08/25 01:44:03;;;;;;;2.92;1.52;;;;;;;16.51;79.11;100453.25;5115905;28;20067;-72
2021/08/25 01:46:34;;;;;;;2.67;1.52;;;;;;;16.41;79.78;100452.28;5115439;28;20396;-72
2021/08/25 01:49:05;;;;;;;2.85;1.52;;;;;;;16.50;79.48;100450.66;5115890;28;20533;-72
2021/08/25 01:51:35;;;;;;;3.05;1.65;;;;;;;16.45;79.68;100448.34;5115165;28;20431;-72
2021/08/25 01:54:03;;;;;;;3.92;1.48;;;;;;;16.38;80.30;100451.66;5115368;28;20407;-73
2021/08/25 01:56:32;;;;;;;3.20;1.50;;;;;;;16.33;80.10;100443.97;5115009;28;20048;-72
2021/08/25 01:59:03;;;;;;;2.50;1.40;;;;;;;16.26;80.57;100448.13;5115601;28;20546;-72
2021/08/25 02:01:33;;;;;;;2.70;1.42;;;;;;;16.37;79.43;100445.41;5115121;28;20035;-73
2021/08/25 02:04:02;;;;;;;2.72;1.60;;;;;;;16.37;79.86;100448.09;5115339;28;20054;-72
2021/08/25 02:06:31;;;;;;;3.72;1.70;;;;;;;16.33;79.96;100451.19;5096620;28;20512;-72
2021/08/25 02:08:59;;;;;;;3.55;1.70;;;;;;;16.39;80.04;100447.97;5115316;28;20039;-72
2021/08/25 02:11:29;;;;;;;3.22;1.75;;;;;;;16.41;80.08;100449.59;5114878;28;20092;-72
2021/08/25 02:13:57;;;;;;;3.55;1.80;;;;;;;16.58;78.89;100449.03;5115392;28;20040;-72
2021/08/25 02:16:25;;;;;;;3.80;1.90;;;;;;;16.50;79.48;100435.38;5114650;28;20097;-72
2021/08/25 02:18:55;;;;;;;2.08;1.23;;;;;;;16.43;79.58;100439.53;5114872;28;20043;-72
2021/08/25 02:21:23;;;;;;;4.70;1.55;;;;;;;16.36;79.85;100435.63;5096394;28;20135;-72
2021/08/25 02:23:51;;;;;;;3.10;1.48;;;;;;;16.32;80.34;100436.88;5096804;28;20101;-72
2021/08/25 02:26:20;;;;;;;3.90;1.90;;;;;;;16.24;81.33;100439.31;5114738;28;20047;-72
2021/08/25 02:28:50;;;;;;;4.13;1.58;;;;;;;16.30;81.05;100439.66;5114709;28;20108;-72
2021/08/25 02:31:19;;;;;;;4.63;1.77;;;;;;;16.19;81.83;100442.38;5114171;28;20052;-72
2021/08/25 02:33:51;;;;;;;3.95;1.70;;;;;;;16.22;81.84;100442.16;5114666;28;20467;-71
2021/08/25 02:36:21;;;;;;;5.32;2.00;;;;;;;16.21;81.86;100437.75;5114233;28;20044;-71
2021/08/25 02:38:50;;;;;;;5.13;1.70;;;;;;;16.20;79.85;100437.84;5114839;28;20043;-71
2021/08/25 02:41:20;;;;;;;2.95;1.70;;;;;;;16.38;78.46;100436.34;5114126;28;20096;-71
2021/08/25 02:43:48;;;;;;;3.40;1.67;;;;;;;16.42;78.00;100432.44;5114815;28;20040;-72
2021/08/25 02:46:17;;;;;;;3.35;1.60;;;;;;;16.37;79.14;100428.41;5113973;28;20040;-73
2021/08/25 02:48:46;;;;;;;4.57;2.03;;;;;;;16.32;79.59;100431.50;5114171;28;20097;-70
2021/08/25 02:51:15;;;;;;;3.17;1.45;;;;;;;16.45;79.02;100432.19;5114275;28;20370;-82
2021/08/25 02:53:44;;;;;;;2.47;1.58;;;;;;;16.44;78.40;100430.47;5114421;28;20090;-71
2021/08/25 02:56:13;;;;;;;3.35;1.90;;;;;;;16.40;78.74;100429.00;5114285;28;20044;-71
2021/08/25 02:58:41;;;;;;;3.42;1.88;;;;;;;16.33;78.93;100430.50;5114119;28;20435;-72
2021/08/25 03:01:09;;;;;;;2.97;1.65;;;;;;;16.35;79.09;100425.84;5114109;28;20047;-71
2021/08/25 03:03:38;;;;;;;4.13;2.10;;;;;;;16.58;77.42;100423.94;5113900;28;20127;-70
2021/08/25 03:06:06;;;;;;;3.45;1.83;;;;;;;16.42;77.62;100435.16;5114080;28;20051;-71
2021/08/25 03:08:37;;;;;;;5.60;2.45;;;;;;;16.49;77.25;100436.31;5113738;28;20043;-71
2021/08/25 03:11:09;;;;;;;3.42;1.95;;;;;;;16.53;77.15;100429.72;5113867;28;20084;-70
2021/08/25 03:13:38;;;;;;;5.87;2.33;;;;;;;16.47;77.61;100432.06;5113904;28;20533;-72
2021/08/25 03:16:06;;;;;;;5.10;2.17;;;;;;;16.44;77.31;100430.47;5113866;28;20050;-75
2021/08/25 03:18:35;;;;;;;6.75;2.20;;;;;;;16.30;77.69;100434.28;5113596;28;20114;-74
2021/08/25 03:21:05;;;;;;;6.05;2.22;;;;;;;16.28;77.58;100428.19;5114206;28;20093;-73
2021/08/25 03:23:34;;;;;;;4.53;2.13;;;;;;;16.20;78.13;100437.84;5113444;28;20122;-73
2021/08/25 03:26:02;;;;;;;3.80;2.28;;;;;;;16.26;77.26;100431.97;5095301;28;20047;-74
2021/08/25 03:28:34;;;;;;;3.40;1.90;;;;;;;16.27;77.77;100425.59;5113502;28;20043;-73
2021/08/25 03:31:02;;;;;;;5.80;2.13;;;;;;;16.01;78.12;100423.19;5113762;28;20546;-73
2021/08/25 03:33:30;;;;;;;5.47;2.20;;;;;;;16.20;77.54;100425.25;5113114;28;20396;-73
2021/08/25 03:35:58;;;;;;;4.68;2.33;;;;;;;16.02;78.07;100422.22;5113438;28;20385;-73
2021/08/25 03:38:27;;;;;;;10.02;2.15;;;;;;;16.00;78.23;100421.47;5094695;28;20462;-73
2021/08/25 03:40:55;;;;;;;3.75;1.98;;;;;;;16.12;77.37;100425.03;5113196;28;20052;-73
2021/08/25 03:43:23;;;;;;;6.78;2.60;;;;;;;16.03;78.20;100425.78;5113216;28;20454;-73
2021/08/25 03:45:53;;;;;;;4.07;2.08;;;;;;;16.21;77.52;100423.41;5113336;28;20082;-73
2021/08/25 03:48:21;;;;;;;5.45;2.13;;;;;;;16.08;77.63;100428.06;5112753;28;20040;-73
2021/08/25 03:50:49;;;;;;;4.50;2.25;;;;;;;16.02;78.43;100422.22;5113288;28;20092;-74
2021/08/25 03:53:17;;;;;;;5.15;2.10;;;;;;;15.96;78.58;100425.38;5113389;28;20031;-71
2021/08/25 03:55:46;;;;;;;4.63;2.17;;;;;;;15.95;78.71;100418.31;5113474;28;20043;-72
2021/08/25 03:58:14;;;;;;;7.35;2.65;;;;;;;15.99;78.71;100425.13;5113313;28;20040;-71
2021/08/25 04:00:42;;;;;;;5.95;2.30;;;;;;;16.01;78.65;100423.19;5112404;28;20043;-72
2021/08/25 04:03:12;;;;;;;5.32;2.40;;;;;;;16.25;77.74;100427.56;5113021;28;20036;-71
2021/08/25 04:05:40;;;;;;;4.85;2.40;;;;;;;16.24;78.08;100425.88;5112840;28;20490;-71
2021/08/25 04:08:08;;;;;;;5.07;2.35;;;;;;;16.03;78.75;100425.78;5113262;28;20044;-71
2021/08/25 04:10:40;;;;;;;4.63;2.20;;;;;;;16.13;78.30;100425.88;5113039;28;20036;-72
2021/08/25 04:13:08;;;;;;;4.07;2.40;;;;;;;16.00;77.77;100429.53;5113312;28;20582;-71
2021/08/25 04:15:36;;;;;;;4.55;2.20;;;;;;;16.14;78.17;100430.28;5112820;28;20036;-72
2021/08/25 04:18:04;;;;;;;6.03;2.38;;;;;;;16.03;77.48;100428.47;5113055;28;20050;-71
2021/08/25 04:20:34;;;;;;;4.20;2.30;;;;;;;16.13;76.71;100425.88;5112886;28;20444;-72
2021/08/25 04:23:02;;;;;;;5.50;2.40;;;;;;;16.02;77.11;100433.00;5112954;28;20396;-71
2021/08/25 04:25:31;;;;;;;4.97;2.10;;;;;;;16.03;76.99;100434.69;5112604;28;20058;-72
2021/08/25 04:27:59;;;;;;;3.92;2.10;;;;;;;16.00;76.55;100443.00;5112763;28;20040;-72
2021/08/25 04:30:27;;;;;;;4.50;2.00;;;;;;;16.07;75.94;100443.38;5112350;28;20047;-71
2021/08/25 04:32:55;;;;;;;5.40;2.20;;;;;;;15.98;76.61;100434.19;5113048;28;20040;-70
2021/08/25 04:35:23;;;;;;;4.30;2.30;;;;;;;16.08;76.16;100430.75;5112511;28;20062;-71
2021/08/25 04:37:53;;;;;;;5.82;2.63;;;;;;;15.91;76.43;100429.41;5112981;28;20044;-72
2021/08/25 04:40:22;;;;;;;4.18;2.15;;;;;;;16.05;75.77;100433.72;5112728;28;20127;-79
2021/08/25 04:42:50;;;;;;;6.15;2.30;;;;;;;16.23;75.09;100437.63;5112709;28;20035;-71
2021/08/25 04:45:18;;;;;;;5.25;2.65;;;;;;;16.14;75.36;100438.34;5112611;28;20488;-70
2021/08/25 04:47:49;;;;;;;4.35;2.20;;;;;;;16.19;75.11;100430.75;5112949;28;20043;-70
2021/08/25 04:50:18;;;;;;;3.83;2.30;;;;;;;15.96;76.29;100443.38;5112781;28;20044;-70
2021/08/25 04:52:47;;;;;;;8.75;2.45;;;;;;;16.04;75.82;100438.25;5112483;28;20048;-73
2021/08/25 04:55:17;;;;;;;4.18;2.15;;;;;;;16.21;75.10;100431.47;5112595;28;20468;-72
2021/08/25 04:57:45;;;;;;;4.78;2.10;;;;;;;16.19;75.44;100436.13;5112192;28;20388;-70
2021/08/25 05:00:14;;;;;;;4.88;2.40;;;;;;;15.92;76.39;100423.94;5112695;28;20396;-69
2021/08/25 05:02:42;;;;;;;4.22;2.30;;;;;;;16.05;76.49;100422.94;5112059;28;20047;-69
2021/08/25 05:05:11;;;;;;;4.13;2.30;;;;;;;16.15;76.07;100414.00;5112559;28;20122;-68
2021/08/25 05:07:39;;;;;;;4.40;2.22;;;;;;;16.07;76.75;100415.59;5112228;28;20046;-70
2021/08/25 05:10:10;;;;;;;4.28;1.92;;;;;;;16.22;75.75;100419.75;5112347;28;20043;-70
2021/08/25 05:12:40;;;;;;;6.43;2.30;;;;;;;16.17;76.71;100417.44;5113297;28;20031;-69
2021/08/25 05:15:09;;;;;;;5.30;2.67;;;;;;;16.01;77.51;100412.41;5116067;28;20073;-70
2021/08/25 05:17:37;;;;;;;5.00;2.67;;;;;;;16.29;76.38;100407.50;5115216;28;20036;-70
2021/08/25 05:20:08;;;;;;;5.15;2.40;;;;;;;15.93;77.50;100409.50;5115532;28;20047;-71
2021/08/25 05:22:36;;;;;;;4.65;2.40;;;;;;;16.00;77.41;100404.47;5115320;28;20043;-71
2021/08/25 05:25:09;;;;;;;6.28;2.65;;;;;;;16.14;76.71;100395.31;5115654;28;20059;-71
2021/08/25 05:27:37;;;;;;;6.68;2.47;;;;;;;16.27;76.50;100401.38;5115850;28;20160;-70
2021/08/25 05:30:08;;;;;;;5.00;2.53;;;;;;;16.23;76.56;100405.31;5115633;28;20442;-71
2021/08/25 05:32:36;;;;;;;6.45;2.58;;;;;;;16.29;76.52;100399.41;5115663;28;20039;-71
2021/08/25 05:35:05;;;;;;;4.50;2.42;;;;;;;16.43;76.06;100398.31;5115356;28;20044;-71
2021/08/25 05:37:33;;;;;;;6.35;2.47;;;;;;;16.37;76.25;100391.56;5110243;28;20035;-71
2021/08/25 05:40:01;;;;;;;6.88;2.90;;;;;;;16.33;75.71;100395.50;5115592;28;20393;-70
2021/08/25 05:42:30;;;;;;;5.63;2.72;;;;;;;16.19;77.11;100399.31;5115220;28;20469;-70
2021/08/25 05:45:00;;;;;;;5.30;2.40;;;;;;;16.47;76.19;100395.22;5115716;28;20043;-70
2021/08/25 05:47:30;;;;;;;4.72;2.72;;;;;;;16.63;74.17;100405.59;5115216;28;20044;-67
2021/08/25 05:49:59;;;;;;;6.30;2.75;;;;;;;16.45;75.14;100405.28;5115923;28;20047;-69
2021/08/25 05:52:27;;;;;;;7.65;2.85;;;;;;;16.64;74.73;100404.59;5115614;28;20430;-70
2021/08/25 05:54:55;;;;;;;5.10;2.30;;;;;;;16.65;73.75;100400.06;5115509;28;20074;-69
2021/08/25 05:57:23;;;;;;;7.35;3.03;;;;;;;16.40;75.14;100401.22;5115183;28;20071;-69
2021/08/25 05:59:52;;;;;;;5.25;2.58;;;;;;;16.66;73.32;100401.78;5097187;28;20513;-71
2021/08/25 06:02:20;;;;;;;6.10;2.72;;;;;;;16.72;72.95;100401.31;5097330;28;20051;-71
2021/08/25 06:04:50;;;;;;;5.75;2.42;;;;;;;16.60;71.48;100398.63;5115231;28;20047;-71
2021/08/25 06:07:18;;;;;;;9.40;3.60;;;;;;;16.82;72.10;100397.72;5115378;28;20148;-70
2021/08/25 06:09:46;;;;;;;6.05;2.80;;;;;;;16.75;71.33;100396.50;5114936;28;20476;-70
2021/08/25 06:12:15;;;;;;;6.30;2.40;;;;;;;16.81;71.15;100405.94;5115428;28;20473;-70
2021/08/25 06:14:43;;;;;;;4.18;2.50;;;;;;;17.02;70.18;100404.13;5115216;28;20039;-70
2021/08/25 06:17:11;;;;;;;6.40;2.38;;;;;;;16.87;68.87;100400.00;5114956;28;20043;-69
2021/08/25 06:19:39;;;;;;;6.18;2.47;;;;;;;16.81;70.86;100408.63;5111604;28;20058;-70
2021/08/25 06:22:09;;;;;;;5.03;2.70;;;;;;;16.79;71.11;100411.47;5114696;28;20036;-70
2021/08/25 06:24:37;;;;;;;5.57;2.80;;;;;;;16.98;69.48;100413.44;5113900;28;20039;-70
2021/08/25 06:27:06;;;;;;;6.25;2.80;;;;;;;17.06;69.41;100410.94;5114361;28;20084;-70
2021/08/25 06:29:34;;;;;;;6.80;2.60;;;;;;;17.14;69.61;100413.00;5114080;28;20040;-70
2021/08/25 06:32:02;;;;;;;4.80;2.67;;;;;;;17.21;69.45;100410.66;5093881;28;20150;-70
2021/08/25 06:34:30;;;;;;;5.60;2.75;;;;;;;17.38;68.34;100400.13;5114004;28;20042;-69
2021/08/25 06:36:59;;;;;;;5.50;2.28;;;;;;;17.29;67.75;100405.47;5114695;28;20123;-69
2021/08/25 06:39:31;;;;;;;6.00;2.53;;;;;;;17.32;68.70;100399.78;5114641;28;20042;-76
2021/08/25 06:41:59;;;;;;;5.07;2.53;;;;;;;17.06;66.70;100400.16;5115046;28;20036;-70
2021/08/25 06:44:27;;;;;;;5.78;2.45;;;;;;;17.06;66.89;100400.16;5114711;28;20074;-69
2021/08/25 06:46:56;;;;;;;6.00;2.80;;;;;;;17.21;66.73;100410.66;5114065;28;20035;-67
2021/08/25 06:49:24;;;;;;;6.88;2.38;;;;;;;17.27;66.92;100396.63;5114468;28;20040;-67
2021/08/25 06:51:52;;;;;;;7.13;2.50;;;;;;;17.35;66.71;100404.91;5114083;28;20048;-68
2021/08/25 06:54:20;;;;;;;5.00;2.40;;;;;;;17.24;66.20;100402.28;5114299;28;20043;-68
2021/08/25 06:56:50;;;;;;;4.60;2.42;;;;;;;17.31;65.47;100403.47;5114293;28;20040;-68
2021/08/25 06:59:18;;;;;;;6.78;2.88;;;;;;;17.55;65.70;100401.34;5114246;28;20048;-68
2021/08/25 07:01:46;;;;;;;6.20;2.50;;;;;;;17.43;65.73;100402.41;5113818;28;20450;-65
2021/08/25 07:04:16;;;;;;;4.35;2.10;;;;;;;17.40;65.73;100400.84;5114394;28;20096;-67
2021/08/25 07:06:45;;;;;;;7.05;2.40;;;;;;;17.66;64.25;100397.72;5113675;28;20092;-67
2021/08/25 07:09:14;;;;;;;5.25;2.67;;;;;;;17.69;63.36;100389.38;5113976;28;20096;-67
2021/08/25 07:11:42;;;;;;;6.07;2.63;;;;;;;17.88;63.89;100385.94;5113550;28;20504;-67
2021/08/25 07:14:12;;;;;;;5.35;2.50;;;;;;;18.03;63.30;100395.34;5114092;28;20050;-67
2021/08/25 07:16:41;;;;;;;7.30;2.58;;;;;;;18.15;62.54;100388.88;5113734;28;20408;-67
2021/08/25 07:19:09;;;;;;;5.20;2.42;;;;;;;18.24;62.26;100381.81;5113821;28;20043;-67
2021/08/25 07:21:37;;;;;;;6.93;2.67;;;;;;;18.41;62.51;100382.97;5113940;28;20039;-67
2021/08/25 07:24:06;;;;;;;4.90;2.53;;;;;;;18.57;62.63;100383.28;5113707;28;20455;-67
2021/08/25 07:26:34;;;;;;;5.40;2.70;;;;;;;18.79;59.81;100384.88;5113437;28;20047;-67
2021/08/25 07:29:02;;;;;;;6.93;3.05;;;;;;;18.68;60.08;100380.47;5113897;28;20048;-67
2021/08/25 07:31:34;;;;;;;6.80;2.78;;;;;;;18.69;58.32;100392.13;5113997;28;20050;-67
2021/08/25 07:34:03;;;;;;;5.80;2.33;;;;;;;18.45;58.86;100387.09;5114065;28;20043;-67
2021/08/25 07:36:33;;;;;;;6.45;2.70;;;;;;;18.55;58.46;100390.66;5113156;28;20071;-67
2021/08/25 07:39:05;;;;;;;4.45;2.58;;;;;;;18.71;57.17;100391.00;5113704;28;20073;-67
2021/08/25 07:41:33;;;;;;;5.80;2.30;;;;;;;18.88;57.63;100381.34;5091736;28;20055;-67
2021/08/25 07:44:01;;;;;;;6.10;2.60;;;;;;;18.88;55.89;100382.19;5093542;28;20454;-67
2021/08/25 07:46:33;;;;;;;6.40;2.55;;;;;;;18.79;56.86;100383.03;5093417;28;20447;-67
2021/08/25 07:49:05;;;;;;;5.30;2.60;;;;;;;18.72;57.26;100386.44;5093611;28;20089;-67
2021/08/25 07:51:35;;;;;;;4.28;2.20;;;;;;;18.76;56.48;100388.72;5093385;28;20040;-66
2021/08/25 07:54:04;;;;;;;5.65;2.40;;;;;;;18.85;56.83;100382.47;5092871;28;20048;-67
2021/08/25 07:56:32;;;;;;;5.10;2.60;;;;;;;19.30;55.95;100386.41;5092918;28;20036;-67
2021/08/25 07:59:01;;;;;;;5.70;2.58;;;;;;;19.02;55.81;100394.44;5092998;28;20097;-67
2021/08/25 08:01:30;;;;;;;4.57;2.60;;;;;;;19.23;55.01;100383.44;5093108;28;20044;-67
2021/08/25 08:03:58;;;;;;;5.15;2.40;;;;;;;19.16;54.78;100387.72;5092919;28;20040;-67
2021/08/25 08:06:28;;;;;;;5.85;2.80;;;;;;;18.95;55.04;100389.72;5093017;28;20064;-67
2021/08/25 08:08:56;;;;;;;5.13;2.50;;;;;;;19.13;54.50;100380.75;5092720;28;20046;-67
2021/08/25 08:11:25;;;;;;;6.07;2.50;;;;;;;19.29;54.15;100382.00;5092734;28;20052;-67
2021/08/25 08:13:53;;;;;;;5.28;2.70;;;;;;;19.22;54.28;100386.31;5092244;28;20090;-67
2021/08/25 08:16:22;;;;;;;6.38;2.45;;;;;;;19.53;54.20;100384.25;5092653;28;20054;-67
2021/08/25 08:18:59;;;;;;;4.18;2.17;;;;;;;19.68;52.81;100389.03;5092462;28;20040;-67
2021/08/25 08:21:29;;;;;;;3.42;2.10;;;;;;;19.70;52.91;100383.50;5092783;28;20043;-66
2021/08/25 08:23:59;;;;;;;4.78;2.45;;;;;;;19.72;53.19;100392.31;5092421;28;20165;-67
2021/08/25 08:26:28;;;;;;;5.13;2.25;;;;;;;19.87;52.41;100384.56;5092739;28;20048;-67
2021/08/25 08:28:58;;;;;;;5.13;2.50;;;;;;;19.66;53.36;100401.88;5092538;28;20051;-67
2021/08/25 08:31:27;;;;;;;6.72;2.67;;;;;;;19.54;52.85;100391.34;5092640;28;20040;-67
2021/08/25 08:33:56;;;;;;;5.70;2.40;;;;;;;19.83;52.77;100386.72;5092440;28;20040;-67
2021/08/25 08:36:24;;;;;;;5.88;2.50;;;;;;;19.96;53.13;100381.81;5092338;28;20044;-67
2021/08/25 08:38:54;;;;;;;5.32;2.30;;;;;;;19.89;52.78;100386.16;5092574;28;20044;-67
2021/08/25 08:41:22;;;;;;;5.82;2.28;;;;;;;19.83;53.98;100377.75;5110977;28;20052;-67
2021/08/25 08:43:52;;;;;;;5.90;2.33;;;;;;;19.83;53.39;100384.03;5112922;28;20039;-67
2021/08/25 08:46:22;;;;;;;5.30;2.35;;;;;;;19.57;53.96;100374.84;5113566;28;20078;-67
2021/08/25 08:48:52;;;;;;;4.22;2.35;;;;;;;19.64;53.46;100379.53;5116603;28;20130;-67
2021/08/25 08:51:23;;;;;;;6.90;2.60;;;;;;;19.45;54.26;100375.00;5117130;28;20480;-67
2021/08/25 08:53:54;;;;;;;6.18;2.33;;;;;;;19.40;54.55;100373.75;5116767;28;20106;-67
2021/08/25 08:56:23;;;;;;;5.50;2.55;;;;;;;19.59;54.84;100375.53;5116844;28;20485;-67
2021/08/25 08:58:53;;;;;;;5.65;2.30;;;;;;;19.76;54.09;100369.38;5116367;28;20039;-67
2021/08/25 09:01:21;;;;;;;5.90;2.63;;;;;;;19.67;53.33;100367.56;5116532;28;20043;-67
2021/08/25 09:03:50;;;;;;;5.05;2.70;;;;;;;19.57;54.22;100367.59;5116606;28;20131;-67
2021/08/25 09:06:18;;;;;;;5.43;2.15;;;;;;;19.60;52.17;100366.47;5116643;28;20048;-67
2021/08/25 09:08:47;;;;;;;3.88;1.90;;;;;;;19.68;53.15;100358.44;5116549;28;20430;-67
2021/08/25 09:11:19;;;;;;;5.10;2.20;;;;;;;19.65;53.47;100347.91;5116687;28;20469;-67
2021/08/25 09:13:50;;;;;;;4.03;2.30;;;;;;;19.80;53.57;100356.41;5116145;28;20054;-68
2021/08/25 09:16:28;;;;;;;4.60;2.20;;;;;;;19.83;52.55;100346.13;5116297;28;20047;-68
2021/08/25 09:19:01;;;;;;;4.32;2.10;;;;;;;19.93;52.27;100351.50;5116115;28;20054;-68
2021/08/25 09:21:30;;;;;;;;;;;;;;;19.92;50.15;100345.22;5116598;28;20035;-67
2021/08/25 09:23:58;;;;;;;5.25;2.00;;;;;;;19.95;50.39;100350.34;5115975;28;19920;-67
2021/08/25 09:26:28;;;;;;;8.65;2.25;;;;;;;19.98;51.20;100341.94;5116054;28;20078;-67
2021/08/25 09:28:56;;;;;;;5.00;1.90;;;;;;;19.98;51.30;100350.06;5115876;28;20043;-67
2021/08/25 09:31:25;;;;;;;3.65;2.00;;;;;;;20.01;51.40;100338.91;5116227;28;20046;-67
2021/08/25 09:33:53;;;;;;;4.28;2.10;;;;;;;20.26;50.95;100339.19;5115973;28;20048;-67
2021/08/25 09:36:21;;;;;;;4.63;2.13;;;;;;;20.20;51.01;100337.09;5116045;28;20122;-67
2021/08/25 09:38:54;;;;;;;5.15;2.10;;;;;;;20.26;51.40;100339.19;5115564;28;20044;-67
2021/08/25 09:41:23;;;;;;;3.45;2.10;;;;;;;20.24;51.19;100327.66;5115870;28;20100;-67
2021/08/25 09:43:53;;;;;;;4.05;2.00;;;;;;;20.28;50.01;100323.66;5115709;28;20040;-67
2021/08/25 09:46:24;;;;;;;3.65;2.08;;;;;;;20.30;50.09;100322.50;5116011;28;20378;-67
2021/08/25 09:48:55;;;;;;;3.80;2.07;;;;;;;20.28;49.54;100318.25;5115712;28;20044;-67
2021/08/25 09:51:26;;;;;;;4.38;2.20;;;;;;;20.33;49.67;100317.75;5115462;28;20048;-67
2021/08/25 09:54:05;;;;;;;4.03;2.08;;;;;;;20.31;48.59;100317.94;5115679;28;20047;-67
2021/08/25 09:56:36;;;;;;;5.28;1.75;;;;;;;20.39;48.59;100315.31;5115821;28;20455;-67
2021/08/25 09:59:08;;;;;;;4.65;1.95;;;;;;;20.49;47.83;100317.97;5114469;28;20039;-67
2021/08/25 10:01:37;;;;;;;4.68;1.70;;;;;;;20.43;46.83;100305.88;5115466;28;20481;-68
2021/08/25 10:04:07;;;;;;;3.80;1.75;;;;;;;20.63;46.35;100311.16;5115150;28;20489;-67
2021/08/25 10:06:37;;;;;;;4.25;1.98;;;;;;;20.84;46.50;100311.66;5115384;28;20485;-67
2021/08/25 10:09:06;;;;;;;4.25;2.28;;;;;;;21.04;46.88;100310.50;5114997;28;20078;-67
2021/08/25 10:11:36;;;;;;;5.22;2.20;;;;;;;21.25;47.10;100307.41;5115482;28;20046;-68
2021/08/25 10:14:10;;;;;;;4.00;1.88;;;;;;;21.51;46.45;100299.28;5114971;28;20043;-67
2021/08/25 10:16:40;;;;;;;4.15;2.10;;;;;;;21.75;45.50;100297.72;5115312;28;20046;-67
2021/08/25 10:19:42;;;;;;;3.88;1.90;;;;;;;21.99;44.88;100289.63;5115225;28;20047;-67
2021/08/25 10:22:28;;;;;;;4.25;2.20;;;;;;;22.03;43.88;100284.75;5032305;28;20052;-67
2021/08/25 10:25:02;;;;;;;4.00;2.33;;;;;;;21.89;43.59;100283.50;5030312;28;20057;-67
2021/08/25 10:27:33;;;;;;;4.50;2.22;;;;;;;21.92;43.87;100281.31;5083791;28;20063;-67
2021/08/25 10:30:11;;;;;;;7.20;2.90;;;;;;;22.10;43.69;100274.94;5114994;28;20046;-67
2021/08/25 10:32:55;;;;;;;5.57;2.20;;;;;;;22.42;43.16;100274.16;5115254;28;20047;-67
2021/08/25 10:35:27;;;;;;;4.53;2.10;;;;;;;22.73;42.44;100269.75;5114299;28;20043;-67
2021/08/25 10:38:22;;;;;;;3.67;2.10;;;;;;;22.75;42.80;100264.97;5114423;28;20039;-67
2021/08/25 10:40:52;;;;;;;8.07;2.42;;;;;;;22.57;42.65;100261.59;5114744;28;20043;-67
2021/08/25 10:43:38;;;;;;;5.28;2.38;;;;;;;22.17;42.83;100260.53;5114632;28;20036;-67
2021/08/25 10:46:08;;;;;;;4.63;2.13;;;;;;;22.39;42.60;100260.88;5114583;28;20104;-67
2021/08/25 10:48:56;;;;;;;3.83;2.15;;;;;;;22.69;42.37;100249.38;5114827;28;20477;-67
2021/08/25 10:51:28;;;;;;;3.78;2.00;;;;;;;22.78;42.18;100248.34;5114721;28;20047;-67
2021/08/25 10:53:56;;;;;;;4.60;2.20;;;;;;;22.81;42.64;100247.16;5114200;28;20085;-65
2021/08/25 10:56:31;;;;;;;5.32;2.40;;;;;;;22.74;42.35;100241.53;5114283;28;20065;-66
2021/08/25 10:59:03;;;;;;;4.25;2.20;;;;;;;22.72;42.22;100249.03;5114362;28;20054;-65
2021/08/25 11:01:34;;;;;;;7.57;2.28;;;;;;;22.74;42.46;100241.53;5114479;28;20078;-67
2021/08/25 11:04:05;;;;;;;4.30;2.00;;;;;;;22.74;42.76;100233.38;5114073;28;20040;-67
2021/08/25 11:06:42;;;;;;;5.25;2.40;;;;;;;22.62;42.88;100234.75;5114461;28;20044;-67
2021/08/25 11:09:28;;;;;;;4.95;2.20;;;;;;;22.49;44.27;100232.56;5095556;28;20048;-67
2021/08/25 11:12:03;;;;;;;5.03;2.38;;;;;;;22.18;44.79;100237.78;5114060;28;20047;-67
2021/08/25 11:14:34;;;;;;;4.95;2.45;;;;;;;22.26;45.74;100236.94;5114011;28;20322;-67
2021/08/25 11:17:12;;;;;;;3.80;2.05;;;;;;;22.28;45.17;100240.31;5113659;28;20468;-67
2021/08/25 11:19:43;;;;;;;4.57;2.22;;;;;;;22.16;45.90;100236.25;5114247;28;20074;-67
2021/08/25 11:22:20;;;;;;;4.25;2.30;;;;;;;22.22;45.35;100230.16;5113923;28;20039;-67
2021/08/25 11:24:49;;;;;;;3.70;2.20;;;;;;;22.15;45.50;100232.69;5114072;28;20092;-66
2021/08/25 11:27:30;;;;;;;4.35;2.30;;;;;;;22.28;45.27;100226.75;5113686;28;20260;-67
2021/08/25 11:30:10;;;;;;;5.68;2.20;;;;;;;22.18;45.19;100221.47;5113732;28;20043;-67
2021/08/25 11:32:59;;;;;;;5.32;2.20;;;;;;;22.32;44.47;100221.84;5114006;28;20097;-67
2021/08/25 11:35:30;;;;;;;4.80;2.50;;;;;;;22.40;44.74;100216.41;5113693;28;20108;-67
2021/08/25 11:38:00;;;;;;;5.05;2.20;;;;;;;22.25;44.25;100219.78;5113638;28;20043;-67